Time;durP1;ratioP1;P1;durP2;ratioP2;P2;SDS_P1;SDS_P2;PMS_P1;PMS_P2;Temp;Humidity;BMP_temperature;BMP_pressure;BME280_temperature;BME280_humidity;BME280_pressure;Samples;Min_cycle;Max_cycle;Signal;HPM_P1;HPM_P2
2023/04/25 00:01:02;;;;;;;21.02;6.68;;;6.70;99.90;;;;;;4903115;28;90744;-34
2023/04/25 00:03:29;;;;;;;6.00;4.63;;;6.70;99.90;;;;;;4902726;28;89368;-32
2023/04/25 00:05:56;;;;;;;10.15;4.57;;;6.70;99.90;;;;;;4903277;28;88960;-31
2023/04/25 00:08:22;;;;;;;33.72;6.82;;;6.70;99.90;;;;;;4903073;28;90268;-32
2023/04/25 00:10:48;;;;;;;10.43;4.97;;;6.70;99.90;;;;;;4897600;28;90825;-32
2023/04/25 00:13:14;;;;;;;20.85;4.57;;;6.80;99.90;;;;;;4895513;28;90221;-31
2023/04/25 00:15:41;;;;;;;22.90;6.60;;;6.70;99.90;;;;;;4903822;28;88530;-33
2023/04/25 00:18:07;;;;;;;13.48;4.22;;;6.70;99.90;;;;;;4903276;28;90091;-32
2023/04/25 00:20:33;;;;;;;11.68;4.57;;;6.70;99.90;;;;;;4902371;28;89771;-32
2023/04/25 00:22:58;;;;;;;10.13;4.93;;;6.80;99.90;;;;;;4902943;28;88695;-30
2023/04/25 00:25:24;;;;;;;13.88;5.85;;;6.70;99.90;;;;;;4902381;28;87989;-31
2023/04/25 00:27:50;;;;;;;6.82;5.70;;;6.70;99.90;;;;;;4903243;28;90664;-35
2023/04/25 00:30:15;;;;;;;7.53;4.22;;;6.60;99.90;;;;;;4903023;28;90287;-33
2023/04/25 00:32:41;;;;;;;10.65;5.13;;;6.60;99.90;;;;;;4902354;28;90161;-35
2023/04/25 00:35:07;;;;;;;12.60;4.40;;;6.60;99.90;;;;;;4901912;28;89967;-30
2023/04/25 00:37:33;;;;;;;14.00;6.78;;;6.50;99.90;;;;;;4902672;28;90030;-33
2023/04/25 00:39:58;;;;;;;21.65;6.03;;;6.40;99.90;;;;;;4903183;28;90075;-32
2023/04/25 00:42:25;;;;;;;16.98;5.63;;;6.40;99.90;;;;;;4902014;28;89109;-33
2023/04/25 00:44:52;;;;;;;15.60;5.05;;;6.30;99.90;;;;;;4903114;28;89746;-35
2023/04/25 00:47:18;;;;;;;17.23;5.33;;;6.30;99.90;;;;;;4902217;28;88962;-33
2023/04/25 00:49:44;;;;;;;16.77;5.57;;;6.30;99.90;;;;;;4902254;28;90192;-31
2023/04/25 00:52:10;;;;;;;11.27;4.28;;;6.20;99.90;;;;;;4902768;28;89146;-33
2023/04/25 00:54:36;;;;;;;21.77;6.30;;;6.20;99.90;;;;;;4903260;28;89170;-32
2023/04/25 00:57:02;;;;;;;11.50;5.13;;;6.20;99.90;;;;;;4901397;28;90300;-32
2023/04/25 00:59:30;;;;;;;11.50;6.28;;;6.10;99.90;;;;;;4901259;28;90698;-30
2023/04/25 01:01:56;;;;;;;11.95;4.57;;;6.10;99.90;;;;;;4902463;28;91237;-33
2023/04/25 01:04:22;;;;;;;18.63;5.47;;;6.10;99.90;;;;;;4901185;28;89837;-31
2023/04/25 01:06:48;;;;;;;9.43;5.32;;;6.10;99.90;;;;;;4902911;28;89437;-35
2023/04/25 01:09:14;;;;;;;9.25;4.90;;;6.10;99.90;;;;;;4901997;28;90885;-31
2023/04/25 01:11:40;;;;;;;21.48;7.15;;;6.10;99.90;;;;;;4889434;28;89187;-32
2023/04/25 01:14:06;;;;;;;12.98;4.57;;;6.10;99.90;;;;;;4902074;28;89972;-31
2023/04/25 01:16:31;;;;;;;7.90;4.80;;;6.10;99.90;;;;;;4902250;28;90082;-32
2023/04/25 01:18:57;;;;;;;15.90;4.10;;;6.00;99.90;;;;;;4901728;28;89582;-35
2023/04/25 01:21:26;;;;;;;10.02;5.18;;;6.00;99.90;;;;;;4901739;28;89436;-30
2023/04/25 01:23:52;;;;;;;13.32;5.15;;;6.00;99.90;;;;;;4902008;28;90140;-33
2023/04/25 01:26:18;;;;;;;11.25;4.82;;;6.00;99.90;;;;;;4901545;28;90948;-35
2023/04/25 01:28:45;;;;;;;15.68;5.22;;;6.00;99.90;;;;;;4902075;28;88810;-30
2023/04/25 01:31:11;;;;;;;9.27;5.13;;;5.90;99.90;;;;;;4901311;28;90683;-32
2023/04/25 01:33:37;;;;;;;10.88;4.70;;;5.90;99.90;;;;;;4901358;28;89616;-36
2023/04/25 01:36:04;;;;;;;6.28;4.35;;;5.90;99.90;;;;;;4902153;28;90272;-30
2023/04/25 01:38:30;;;;;;;10.15;5.05;;;5.90;99.90;;;;;;4888285;28;90815;-32
2023/04/25 01:40:56;;;;;;;13.80;4.63;;;5.90;99.90;;;;;;4900873;28;89346;-35
2023/04/25 01:43:21;;;;;;;10.32;4.97;;;5.90;99.90;;;;;;4902076;28;89508;-31
2023/04/25 01:45:49;;;;;;;14.68;5.47;;;5.80;99.90;;;;;;4901579;28;88730;-33
2023/04/25 01:48:15;;;;;;;11.52;4.35;;;5.80;99.90;;;;;;4900902;28;90661;-31
2023/04/25 01:50:41;;;;;;;14.45;4.93;;;5.70;99.90;;;;;;4901560;28;89970;-32
2023/04/25 01:53:09;;;;;;;14.50;4.80;;;5.70;99.90;;;;;;4900105;28;89656;-31
2023/04/25 01:55:34;;;;;;;17.90;5.57;;;5.60;99.90;;;;;;4902113;28;90185;-35
2023/04/25 01:58:02;;;;;;;15.98;5.47;;;5.60;99.90;;;;;;4889694;28;88720;-41
2023/04/25 02:00:28;;;;;;;13.27;4.07;;;5.60;99.90;;;;;;4901388;28;90021;-30
2023/04/25 02:02:57;;;;;;;8.55;5.25;;;5.60;99.90;;;;;;4901428;28;89480;-35
2023/04/25 02:05:22;;;;;;;8.90;5.43;;;5.50;99.90;;;;;;4901729;28;90434;-32
2023/04/25 02:07:48;;;;;;;12.48;5.47;;;5.50;99.90;;;;;;4901503;28;90083;-32
2023/04/25 02:10:14;;;;;;;13.18;4.40;;;5.40;99.90;;;;;;4898881;28;89704;-31
2023/04/25 02:12:40;;;;;;;24.70;6.65;;;5.40;99.90;;;;;;4889628;28;89852;-30
2023/04/25 02:15:06;;;;;;;25.75;5.45;;;5.50;99.90;;;;;;4901395;28;90662;-33
2023/04/25 02:17:32;;;;;;;10.95;5.30;;;5.50;99.90;;;;;;4901572;28;89800;-33
2023/04/25 02:19:58;;;;;;;13.07;5.82;;;5.50;99.90;;;;;;4898831;28;90075;-31
2023/04/25 02:22:23;;;;;;;10.70;3.70;;;5.50;99.90;;;;;;4901101;28;89287;-31
2023/04/25 02:24:49;;;;;;;19.27;5.72;;;5.50;99.90;;;;;;4901080;28;91710;-30
2023/04/25 02:27:15;;;;;;;12.80;3.83;;;5.50;99.90;;;;;;4901240;28;89914;-30
2023/04/25 02:29:40;;;;;;;12.30;4.85;;;5.50;99.90;;;;;;4901212;28;89437;-32
2023/04/25 02:32:06;;;;;;;14.00;7.35;;;5.50;99.90;;;;;;4900544;28;88821;-34
2023/04/25 02:34:32;;;;;;;10.63;4.43;;;5.50;99.90;;;;;;4900844;28;90322;-32
2023/04/25 02:36:57;;;;;;;11.75;5.13;;;5.50;99.90;;;;;;4900879;28;90680;-30
2023/04/25 02:39:24;;;;;;;11.75;4.30;;;5.50;99.90;;;;;;4900678;28;90676;-30
2023/04/25 02:41:51;;;;;;;13.00;5.80;;;5.50;99.90;;;;;;4901649;28;89787;-30
2023/04/25 02:44:16;;;;;;;13.20;4.40;;;5.50;99.90;;;;;;4900565;28;90268;-30
2023/04/25 02:46:42;;;;;;;13.60;5.32;;;5.50;99.90;;;;;;4900564;28;89353;-30
2023/04/25 02:49:08;;;;;;;11.82;5.30;;;5.50;99.90;;;;;;4900611;28;89313;-29
2023/04/25 02:51:33;;;;;;;13.18;5.13;;;5.50;99.90;;;;;;4900929;28;88854;-31
2023/04/25 02:53:59;;;;;;;19.13;5.32;;;5.50;99.90;;;;;;4900837;28;90330;-33
2023/04/25 02:56:25;;;;;;;13.65;4.75;;;5.50;99.90;;;;;;4900100;28;89998;-30
2023/04/25 02:58:52;;;;;;;10.48;4.65;;;5.50;99.90;;;;;;4900035;28;89416;-31
2023/04/25 03:01:17;;;;;;;31.77;6.28;;;5.50;99.90;;;;;;4901142;28;90187;-29
2023/04/25 03:03:43;;;;;;;16.20;4.68;;;5.50;99.90;;;;;;4899241;28;90407;-30
2023/04/25 03:06:08;;;;;;;11.48;5.45;;;5.50;99.90;;;;;;4901170;28;89589;-32
2023/04/25 03:08:34;;;;;;;15.13;4.40;;;5.50;99.90;;;;;;4899580;28;90600;-34
2023/04/25 03:11:00;;;;;;;7.22;4.88;;;5.50;99.90;;;;;;4893994;28;90887;-30
2023/04/25 03:13:27;;;;;;;6.05;3.22;;;5.50;99.90;;;;;;4894569;28;88940;-31
2023/04/25 03:15:52;;;;;;;13.32;5.07;;;5.50;99.90;;;;;;4900312;28;89793;-30
2023/04/25 03:18:18;;;;;;;8.32;3.97;;;5.50;99.90;;;;;;4900147;28;89565;-30
2023/04/25 03:20:44;;;;;;;8.60;4.13;;;5.50;99.90;;;;;;4901483;28;89477;-30
2023/04/25 03:23:09;;;;;;;13.40;5.05;;;5.50;99.90;;;;;;4902953;28;90162;-36
2023/04/25 03:25:35;;;;;;;6.43;4.88;;;5.50;99.90;;;;;;4903743;28;90620;-32
2023/04/25 03:28:00;;;;;;;8.45;4.72;;;5.50;99.90;;;;;;4903357;28;90621;-35
2023/04/25 03:30:26;;;;;;;10.35;5.13;;;5.40;99.90;;;;;;4891767;28;89560;-31
2023/04/25 03:32:52;;;;;;;11.90;4.13;;;5.40;99.90;;;;;;4903271;28;90623;-30
2023/04/25 03:35:17;;;;;;;10.82;3.53;;;5.40;99.90;;;;;;4904003;28;89598;-32
2023/04/25 03:37:46;;;;;;;10.98;4.30;;;5.50;99.90;;;;;;4903652;28;89523;-30
2023/04/25 03:40:12;;;;;;;14.02;5.68;;;5.50;99.90;;;;;;4891157;28;89318;-34
2023/04/25 03:42:37;;;;;;;4.22;3.58;;;5.40;99.90;;;;;;4903356;28;90204;-34
2023/04/25 03:45:04;;;;;;;10.68;3.40;;;5.40;99.90;;;;;;4903726;28;90979;-32
2023/04/25 03:47:30;;;;;;;8.43;4.25;;;5.50;99.90;;;;;;4902973;28;89633;-31
2023/04/25 03:49:55;;;;;;;7.63;4.45;;;5.40;99.90;;;;;;4903354;28;88673;-32
2023/04/25 03:52:21;;;;;;;7.00;3.33;;;5.40;99.90;;;;;;4902745;28;90424;-33
2023/04/25 03:54:47;;;;;;;11.38;3.97;;;5.50;99.90;;;;;;4903910;28;89718;-31
2023/04/25 03:57:12;;;;;;;12.65;3.63;;;5.40;99.90;;;;;;4902713;28;90493;-31
2023/04/25 03:59:38;;;;;;;14.18;4.40;;;5.50;99.90;;;;;;4903203;28;88087;-31
2023/04/25 04:02:28;;;;;;;12.63;4.90;;;5.40;99.90;;;;;;4908192;23;91423;31
2023/04/25 04:04:55;;;;;;;10.77;4.15;;;5.40;99.90;;;;;;4873403;28;89908;-31
2023/04/25 04:07:21;;;;;;;14.88;4.97;;;5.40;99.90;;;;;;4883822;28;89733;-31
2023/04/25 04:09:46;;;;;;;13.77;5.50;;;5.40;99.90;;;;;;4883660;28;88400;-34
2023/04/25 04:12:12;;;;;;;7.78;3.55;;;5.40;99.90;;;;;;4883607;28;90869;-31
2023/04/25 04:14:38;;;;;;;20.80;5.30;;;5.40;99.90;;;;;;4883817;28;90472;-34
2023/04/25 04:17:03;;;;;;;12.70;4.53;;;5.40;99.90;;;;;;4884222;28;90515;-30
2023/04/25 04:19:29;;;;;;;14.20;4.03;;;5.40;99.90;;;;;;4873102;28;88367;-31
2023/04/25 04:21:55;;;;;;;7.75;3.42;;;5.40;99.90;;;;;;4880784;28;90281;-35
2023/04/25 04:24:20;;;;;;;13.57;4.63;;;5.40;99.90;;;;;;4883654;28;89944;-30
2023/04/25 04:26:46;;;;;;;8.32;4.47;;;5.40;99.90;;;;;;4882190;28;89404;-34
2023/04/25 04:29:12;;;;;;;8.98;4.70;;;5.40;99.90;;;;;;4883922;28;88538;-30
2023/04/25 04:31:38;;;;;;;8.10;3.85;;;5.40;99.90;;;;;;4881409;28;90164;-31
2023/04/25 04:34:04;;;;;;;7.68;3.30;;;5.40;99.90;;;;;;4883103;28;89929;-29
2023/04/25 04:36:30;;;;;;;14.95;3.45;;;5.40;99.90;;;;;;4882234;28;89454;-33
2023/04/25 04:38:56;;;;;;;7.43;2.72;;;5.40;99.90;;;;;;4880447;28;90636;-32
2023/04/25 04:41:22;;;;;;;9.80;2.92;;;5.40;99.90;;;;;;4879029;28;89269;-32
2023/04/25 04:43:47;;;;;;;6.00;2.95;;;5.40;99.90;;;;;;4883206;28;88827;-31
2023/04/25 04:46:14;;;;;;;6.93;3.30;;;5.40;99.90;;;;;;4882408;28;89854;-35
2023/04/25 04:48:40;;;;;;;3.03;1.85;;;5.50;99.90;;;;;;4883549;28;88213;-30
2023/04/25 04:51:06;;;;;;;6.85;3.15;;;5.50;99.90;;;;;;4882863;28;90513;-30
2023/04/25 04:53:32;;;;;;;9.02;3.03;;;5.50;99.90;;;;;;4883468;28;90175;-34
2023/04/25 04:55:57;;;;;;;15.07;3.05;;;5.50;99.90;;;;;;4882228;28;90721;-33
2023/04/25 04:58:23;;;;;;;7.50;3.45;;;5.50;99.90;;;;;;4881949;28;87812;-30
2023/04/25 05:00:49;;;;;;;11.02;3.35;;;5.50;99.90;;;;;;4882895;28;90132;-31
2023/04/25 05:03:15;;;;;;;7.75;3.22;;;5.50;99.90;;;;;;4881926;28;91038;-29
2023/04/25 05:05:41;;;;;;;5.70;2.92;;;5.50;99.90;;;;;;4870312;28;90680;-30
2023/04/25 05:08:07;;;;;;;15.45;3.70;;;5.60;99.90;;;;;;4879942;28;88793;-31
2023/04/25 05:10:33;;;;;;;7.60;2.53;;;5.70;99.90;;;;;;4877615;28;90739;-30
2023/04/25 05:12:58;;;;;;;14.18;2.35;;;5.80;99.90;;;;;;4873698;28;90878;-29
2023/04/25 05:15:24;;;;;;;8.00;2.35;;;5.90;99.90;;;;;;4864486;28;89348;-30
2023/04/25 05:17:50;;;;;;;6.80;2.22;;;6.10;99.90;;;;;;4864805;28;88631;-34
2023/04/25 05:20:16;;;;;;;5.25;1.98;;;6.10;99.90;;;;;;4867007;28;90329;-31
2023/04/25 05:22:41;;;;;;;7.53;2.47;;;6.20;99.90;;;;;;4883075;28;89555;-33
2023/04/25 05:25:08;;;;;;;6.70;2.28;;;6.30;99.90;;;;;;4878998;28;89752;-32
2023/04/25 05:27:34;;;;;;;5.13;2.05;;;6.30;99.90;;;;;;4864029;28;90389;-32
2023/04/25 05:29:59;;;;;;;5.72;2.45;;;6.40;99.90;;;;;;4862839;28;89981;-33
2023/04/25 05:32:26;;;;;;;6.25;2.83;;;6.50;99.90;;;;;;4863391;28;88891;-34
2023/04/25 05:34:52;;;;;;;8.07;2.10;;;6.50;99.90;;;;;;4863579;28;90289;-34
2023/04/25 05:37:17;;;;;;;4.18;1.77;;;6.60;99.90;;;;;;4864259;28;89759;-33
2023/04/25 05:39:43;;;;;;;5.25;2.45;;;6.70;99.90;;;;;;4863990;28;90126;-30
2023/04/25 05:42:09;;;;;;;4.90;2.53;;;6.60;99.90;;;;;;4864003;28;89899;-34
2023/04/25 05:44:34;;;;;;;7.18;1.67;;;6.60;99.90;;;;;;4864476;28;89600;-34
2023/04/25 05:47:00;;;;;;;7.38;3.10;;;6.60;99.90;;;;;;4864438;28;89552;-34
2023/04/25 05:49:25;;;;;;;10.07;2.33;;;6.70;99.90;;;;;;4864219;28;90385;-34
2023/04/25 05:51:51;;;;;;;4.45;3.42;;;6.70;99.90;;;;;;4863485;28;90173;-35
2023/04/25 05:54:17;;;;;;;4.32;2.33;;;6.70;99.90;;;;;;4864506;28;90077;-30
2023/04/25 05:56:42;;;;;;;4.03;2.47;;;6.70;99.90;;;;;;4860569;28;89232;-29
2023/04/25 05:59:08;;;;;;;3.75;1.80;;;6.70;99.90;;;;;;4860925;28;88970;-33
2023/04/25 06:01:34;;;;;;;4.45;2.25;;;6.70;99.90;;;;;;4870138;28;89847;-32
2023/04/25 06:03:59;;;;;;;10.68;4.30;;;6.60;99.90;;;;;;4874214;28;89811;-33
2023/04/25 06:06:26;;;;;;;5.20;2.72;;;6.50;99.90;;;;;;4870435;28;88847;-32
2023/04/25 06:08:52;;;;;;;10.70;3.65;;;6.50;99.90;;;;;;4870757;28;90155;-29
2023/04/25 06:11:17;;;;;;;5.90;2.45;;;6.60;99.90;;;;;;4874000;28;89876;-32
2023/04/25 06:13:43;;;;;;;6.93;2.47;;;6.60;99.90;;;;;;4863808;28;89841;-33
2023/04/25 06:16:09;;;;;;;3.10;1.88;;;6.60;99.90;;;;;;4860981;28;89925;-32
2023/04/25 06:18:34;;;;;;;4.13;1.90;;;6.80;99.90;;;;;;4861650;28;90211;-30
2023/04/25 06:21:00;;;;;;;6.63;1.92;;;6.70;99.90;;;;;;4861058;28;89934;-31
2023/04/25 06:23:25;;;;;;;7.78;2.90;;;6.90;99.90;;;;;;4863702;28;89650;-34
2023/04/25 06:25:51;;;;;;;10.02;2.60;;;7.00;99.90;;;;;;4871293;28;89094;-33
2023/04/25 06:28:17;;;;;;;7.50;2.25;;;7.00;99.90;;;;;;4860086;28;91006;-32
2023/04/25 06:30:42;;;;;;;4.18;1.67;;;7.20;99.90;;;;;;4859040;28;90573;-32
2023/04/25 06:33:08;;;;;;;6.88;3.85;;;7.30;99.90;;;;;;4859688;28;89449;-33
2023/04/25 06:35:34;;;;;;;7.60;2.53;;;7.40;99.90;;;;;;4860444;28;87762;-31
2023/04/25 06:38:00;;;;;;;8.73;3.20;;;7.50;99.90;;;;;;4870676;28;89998;-30
2023/04/25 06:40:25;;;;;;;6.35;2.53;;;7.70;99.90;;;;;;4875118;28;90216;-32
2023/04/25 06:42:51;;;;;;;3.08;2.45;;;7.70;99.90;;;;;;4873525;28;90537;-30
2023/04/25 06:45:17;;;;;;;7.25;3.15;;;8.00;99.90;;;;;;4877805;28;89796;-31
2023/04/25 06:47:42;;;;;;;8.30;3.03;;;8.10;99.90;;;;;;4874515;28;90688;-32
2023/04/25 06:50:08;;;;;;;6.40;2.72;;;8.40;99.90;;;;;;4876386;28;89272;-35
2023/04/25 06:52:34;;;;;;;3.80;2.55;;;8.50;99.90;;;;;;4874499;28;89914;-34
2023/04/25 06:55:00;;;;;;;5.47;3.70;;;8.60;99.90;;;;;;4877728;28;89225;-31
2023/04/25 06:57:25;;;;;;;6.30;2.97;;;8.60;99.90;;;;;;4877332;28;90237;-33
2023/04/25 06:59:51;;;;;;;8.20;3.22;;;8.90;99.90;;;;;;4880174;28;90487;-31
2023/04/25 07:02:16;;;;;;;10.57;3.00;;;9.00;99.90;;;;;;4874875;28;89089;-32
2023/04/25 07:04:42;;;;;;;14.82;4.88;;;9.20;99.90;;;;;;4867903;28;89186;-29
2023/04/25 07:07:08;;;;;;;17.88;3.50;;;9.40;99.90;;;;;;4869901;28;89981;-30
2023/04/25 07:09:33;;;;;;;7.85;2.78;;;9.40;99.90;;;;;;4871188;28;89285;-34
2023/04/25 07:12:01;;;;;;;7.53;2.75;;;9.80;99.90;;;;;;4876163;28;89511;-33
2023/04/25 07:14:27;;;;;;;10.68;3.17;;;9.70;99.90;;;;;;4863441;28;89807;-35
2023/04/25 07:16:52;;;;;;;10.00;2.92;;;9.90;99.90;;;;;;4864946;28;90696;-30
2023/04/25 07:19:18;;;;;;;9.00;2.65;;;10.00;99.90;;;;;;4863296;28;89217;-32
2023/04/25 07:21:44;;;;;;;4.03;1.50;;;10.50;99.90;;;;;;4864783;28;89815;-34
2023/04/25 07:24:09;;;;;;;14.23;3.55;;;10.80;99.90;;;;;;4863757;28;88031;-31
2023/04/25 07:26:35;;;;;;;2.72;2.13;;;10.80;99.90;;;;;;4863701;28;90564;-35
2023/04/25 07:29:00;;;;;;;3.20;2.33;;;10.60;99.90;;;;;;4863408;28;90568;-33
2023/04/25 07:31:26;;;;;;;7.97;2.22;;;10.40;99.90;;;;;;4863226;28;90404;-35
2023/04/25 07:33:52;;;;;;;17.98;3.80;;;10.10;99.90;;;;;;4863911;28;88850;-31
2023/04/25 07:36:18;;;;;;;7.70;2.72;;;9.60;99.90;;;;;;4862448;28;89854;-34
2023/04/25 07:38:43;;;;;;;9.10;2.63;;;9.50;99.90;;;;;;4872129;28;89672;-30
2023/04/25 07:41:09;;;;;;;12.32;2.13;;;9.50;99.90;;;;;;4864744;28;92979;-34
2023/04/25 07:43:35;;;;;;;5.07;2.28;;;9.50;99.90;;;;;;4863731;28;88238;-32
2023/04/25 07:46:00;;;;;;;5.13;2.33;;;9.40;99.90;;;;;;4863964;28;90169;-30
2023/04/25 07:48:26;;;;;;;3.85;2.20;;;9.70;99.90;;;;;;4862902;28;89425;-31
2023/04/25 07:50:51;;;;;;;6.47;2.42;;;10.40;99.90;;;;;;4863203;28;89379;-30
2023/04/25 07:53:18;;;;;;;7.93;2.72;;;10.40;99.90;;;;;;4863024;28;89094;-33
2023/04/25 07:55:43;;;;;;;6.82;2.17;;;10.60;99.90;;;;;;4863013;28;89109;-35
2023/04/25 07:58:11;;;;;;;6.22;3.17;;;10.50;99.90;;;;;;4870665;28;89564;-32
2023/04/25 08:00:36;;;;;;;11.52;2.78;;;10.70;99.90;;;;;;4879254;28;89326;-33
2023/04/25 08:03:02;;;;;;;5.13;1.92;;;10.50;99.90;;;;;;4882195;28;88278;-30
2023/04/25 08:05:28;;;;;;;4.75;2.00;;;10.10;99.90;;;;;;4880658;28;90304;-31
2023/04/25 08:07:54;;;;;;;4.93;1.95;;;9.80;99.90;;;;;;4880462;28;89519;-34
2023/04/25 08:10:20;;;;;;;12.35;3.10;;;9.70;99.90;;;;;;4881017;28;89888;-30
2023/04/25 08:12:46;;;;;;;5.97;2.25;;;9.50;99.90;;;;;;4873593;28;88025;-32
2023/04/25 08:15:13;;;;;;;6.13;2.13;;;9.30;99.90;;;;;;4877106;28;90266;-31
2023/04/25 08:17:39;;;;;;;5.93;2.28;;;9.30;99.90;;;;;;4881359;28;90916;-31
2023/04/25 08:20:05;;;;;;;12.18;2.10;;;9.50;99.90;;;;;;4880425;28;90840;-31
2023/04/25 08:22:31;;;;;;;1.67;1.38;;;10.10;99.90;;;;;;4881997;28;89217;-32
2023/04/25 08:24:57;;;;;;;8.00;1.98;;;10.50;99.90;;;;;;4881235;28;89386;-30
2023/04/25 08:27:23;;;;;;;4.15;1.70;;;10.90;99.90;;;;;;4880951;28;89669;-34
2023/04/25 08:29:49;;;;;;;3.35;2.35;;;10.80;99.90;;;;;;4880232;28;89920;-35
2023/04/25 08:32:15;;;;;;;4.70;1.67;;;10.80;99.90;;;;;;4880307;28;89412;-31
2023/04/25 08:34:42;;;;;;;10.57;1.95;;;10.60;99.90;;;;;;4879913;28;90047;-34
2023/04/25 08:37:09;;;;;;;7.57;2.50;;;10.30;99.90;;;;;;4881177;28;89786;-30
2023/04/25 08:39:38;;;;;;;9.35;2.60;;;10.30;99.90;;;;;;4880062;28;89510;-31
2023/04/25 08:42:10;;;;;;;5.40;1.77;;;9.90;99.90;;;;;;4879970;28;89944;-29
2023/04/25 08:44:35;;;;;;;3.08;1.77;;;9.60;99.90;;;;;;4879552;28;90187;-32
2023/04/25 08:47:05;;;;;;;6.00;2.40;;;9.50;99.90;;;;;;4880166;28;89072;-33
2023/04/25 08:49:32;;;;;;;4.10;1.65;;;9.30;99.90;;;;;;4879888;28;89382;-34
2023/04/25 08:52:01;;;;;;;3.27;1.00;;;9.20;99.90;;;;;;4881794;28;89885;-31
2023/04/25 08:54:28;;;;;;;3.33;1.85;;;9.10;99.90;;;;;;4880320;28;90278;-34
2023/04/25 08:56:54;;;;;;;7.90;1.60;;;9.30;99.90;;;;;;4880586;28;89767;-32
2023/04/25 08:59:22;;;;;;;4.38;2.03;;;9.80;99.90;;;;;;4879992;28;89104;-30
2023/04/25 09:01:49;;;;;;;2.90;1.63;;;10.20;99.90;;;;;;4881271;28;87732;-31
2023/04/25 09:04:15;;;;;;;11.80;2.47;;;10.70;99.90;;;;;;4880230;28;90020;-29
2023/04/25 09:06:41;;;;;;;3.53;1.92;;;11.10;99.90;;;;;;4876339;28;90499;-31
2023/04/25 09:09:08;;;;;;;4.72;2.22;;;11.40;99.90;;;;;;4862514;28;90339;-32
2023/04/25 09:11:38;;;;;;;4.00;2.08;;;11.60;99.90;;;;;;4873713;28;88993;-33
2023/04/25 09:14:16;;;;;;;6.07;2.53;;;11.70;99.90;;;;;;4861425;28;90310;-31
2023/04/25 09:17:00;;;;;;;4.78;1.67;;;11.70;99.90;;;;;;4875863;28;88660;-30
2023/04/25 09:19:31;;;;;;;4.55;1.88;;;12.00;99.90;;;;;;4860433;28;90040;-35
2023/04/25 09:21:59;;;;;;;3.13;1.67;;;11.70;99.90;;;;;;4860109;28;89927;-32
2023/04/25 09:24:39;;;;;;;5.03;1.60;;;11.40;92.20;;;;;;4871656;28;90453;-34
2023/04/25 09:27:10;;;;;;;5.90;1.60;;;10.80;99.90;;;;;;4874119;28;89457;-33
2023/04/25 09:29:40;;;;;;;4.93;2.05;;;10.40;99.90;;;;;;4861813;28;90452;-32
2023/04/25 09:32:23;;;;;;;2.55;1.23;;;10.10;99.90;;;;;;4861141;28;89137;-36
2023/04/25 09:34:53;;;;;;;3.45;1.75;;;9.90;99.90;;;;;;4861548;28;90466;-29
2023/04/25 09:37:23;;;;;;;2.20;1.23;;;9.70;99.90;;;;;;4860436;28;89239;-34
2023/04/25 09:39:52;;;;;;;3.78;1.60;;;9.80;99.90;;;;;;4862059;28;90022;-34
2023/04/25 09:42:21;;;;;;;3.22;1.27;;;10.10;99.90;;;;;;4861978;28;88772;-32
2023/04/25 09:44:47;;;;;;;2.40;1.02;;;10.50;99.90;;;;;;4861742;28;90376;-32
2023/04/25 09:47:15;;;;;;;1.33;1.23;;;9.90;99.90;;;;;;4861109;28;89598;-29
2023/04/25 09:49:42;;;;;;;1.85;1.42;;;9.70;99.90;;;;;;4878843;28;89305;-31
2023/04/25 09:52:08;;;;;;;1.95;1.00;;;9.70;99.90;;;;;;4869473;28;90308;-30
2023/04/25 09:54:34;;;;;;;7.28;1.95;;;9.70;99.90;;;;;;4861149;28;91117;-31
2023/04/25 09:57:11;;;;;;;6.80;2.25;;;10.10;99.90;;;;;;4872212;28;89405;-31
2023/04/25 09:59:42;;;;;;;1.52;1.42;;;10.20;99.90;;;;;;4880039;28;89615;-35
2023/04/25 10:02:09;;;;;;;5.82;1.58;;;10.70;97.90;;;;;;4879336;28;89788;-35
2023/04/25 10:04:35;;;;;;;3.47;1.52;;;10.70;99.90;;;;;;4880227;28;90900;-29
2023/04/25 10:07:05;;;;;;;4.68;1.50;;;10.80;99.90;;;;;;4866653;28;89808;-33
2023/04/25 10:09:33;;;;;;;2.10;1.80;;;11.00;99.20;;;;;;4879275;28;89367;-33
2023/04/25 10:12:00;;;;;;;5.35;1.70;;;11.20;91.00;;;;;;4879426;28;89553;-31
2023/04/25 10:14:26;;;;;;;3.63;2.60;;;11.60;99.90;;;;;;4879553;28;90648;-35
2023/04/25 10:16:53;;;;;;;4.03;1.52;;;11.90;99.90;;;;;;4879730;28;90333;-30
2023/04/25 10:19:20;;;;;;;4.57;1.77;;;12.20;99.90;;;;;;4879648;28;89852;-32
2023/04/25 10:21:57;;;;;;;12.50;1.88;;;12.20;96.40;;;;;;4878129;28;88990;-33
2023/04/25 10:24:25;;;;;;;2.75;1.63;;;12.30;99.90;;;;;;4878982;28;89912;-30
2023/04/25 10:26:51;;;;;;;4.13;1.55;;;11.90;93.10;;;;;;4878975;28;89629;-32
2023/04/25 10:29:26;;;;;;;3.72;1.85;;;11.60;85.90;;;;;;4878801;28;89737;-33
2023/04/25 10:31:52;;;;;;;4.88;1.52;;;11.70;99.90;;;;;;4879462;28;88550;-31
2023/04/25 10:34:19;;;;;;;2.05;1.63;;;10.90;99.90;;;;;;4878541;28;90292;-33
2023/04/25 10:36:51;;;;;;;3.45;1.27;;;10.10;99.90;;;;;;4878387;28;88219;-32
2023/04/25 10:39:26;;;;;;;2.58;1.77;;;9.30;99.90;;;;;;4879071;28;89069;-32
2023/04/25 10:41:58;;;;;;;4.22;1.92;;;8.80;99.90;;;;;;4868117;28;88927;-32
2023/04/25 10:44:30;;;;;;;4.07;1.90;;;8.70;99.90;;;;;;4877808;28;90259;-30
2023/04/25 10:46:57;;;;;;;2.38;1.95;;;8.60;99.90;;;;;;4879090;28;90510;-33
2023/04/25 10:49:30;;;;;;;4.00;1.38;;;8.90;99.90;;;;;;4877967;28;91432;-32
2023/04/25 10:52:25;;;;;;;3.67;1.67;;;9.40;99.90;;;;;;4880284;28;89002;-31
2023/04/25 10:54:55;;;;;;;2.53;1.40;;;9.40;99.90;;;;;;4848908;28;90190;-30
2023/04/25 10:57:38;;;;;;;4.15;1.50;;;9.40;99.90;;;;;;4872681;28;89553;-30
2023/04/25 11:00:05;;;;;;;7.85;1.92;;;9.50;99.90;;;;;;4860602;28;89962;-33
2023/04/25 11:02:31;;;;;;;7.35;2.20;;;9.90;99.90;;;;;;4859714;28;89380;-32
2023/04/25 11:04:56;;;;;;;9.57;2.15;;;9.90;99.90;;;;;;4871857;28;91024;-31
2023/04/25 11:07:49;;;;;;;4.53;2.13;;;10.20;99.90;;;;;;4874812;28;89892;-34
2023/04/25 11:10:14;;;;;;;2.60;1.95;;;10.30;99.90;;;;;;4860994;28;89640;-32
2023/04/25 11:12:40;;;;;;;2.67;1.73;;;10.60;99.90;;;;;;4872359;28;88448;-30
2023/04/25 11:15:07;;;;;;;3.28;1.65;;;10.70;99.90;;;;;;4873211;28;90254;-36
2023/04/25 11:17:34;;;;;;;2.90;1.77;;;11.00;99.90;;;;;;4865636;28;89444;-32
2023/04/25 11:20:00;;;;;;;2.80;2.00;;;11.10;99.90;;;;;;4873740;28;89580;-33
2023/04/25 11:22:27;;;;;;;3.53;2.25;;;10.60;99.90;;;;;;4870886;28;90059;-32
2023/04/25 11:24:53;;;;;;;10.80;2.45;;;10.40;99.90;;;;;;4862388;28;89469;-32
2023/04/25 11:27:20;;;;;;;5.28;2.58;;;10.10;99.90;;;;;;4861098;28;90173;-32
2023/04/25 11:29:47;;;;;;;4.38;2.13;;;10.00;99.90;;;;;;4861906;28;90123;-31
2023/04/25 11:32:15;;;;;;;4.65;1.58;;;10.00;99.90;;;;;;4863172;28;87981;-32
2023/04/25 11:34:43;;;;;;;1.63;1.30;;;10.00;99.90;;;;;;4867061;28;91208;-35
2023/04/25 11:37:09;;;;;;;5.20;2.38;;;10.20;99.90;;;;;;4868034;28;91157;-31
2023/04/25 11:39:34;;;;;;;3.30;1.88;;;10.10;99.90;;;;;;4869192;28;90459;-31
2023/04/25 11:42:01;;;;;;;2.65;2.45;;;10.00;99.90;;;;;;4872303;28;89085;-35
2023/04/25 11:44:27;;;;;;;2.38;1.75;;;10.00;99.90;;;;;;4873171;28;90811;-32
2023/04/25 11:46:53;;;;;;;2.60;2.17;;;9.80;99.90;;;;;;4872187;28;89201;-35
2023/04/25 11:49:19;;;;;;;2.10;1.45;;;9.80;99.90;;;;;;4872274;28;90240;-33
2023/04/25 11:51:47;;;;;;;2.35;1.42;;;10.00;99.90;;;;;;4873056;28;88446;-31
2023/04/25 11:54:13;;;;;;;1.92;1.70;;;10.30;99.90;;;;;;4872586;28;90757;-30
2023/04/25 11:56:45;;;;;;;7.28;2.03;;;10.50;99.90;;;;;;4872787;28;89915;-30
2023/04/25 11:59:12;;;;;;;2.50;1.30;;;10.40;99.90;;;;;;4872315;28;89196;-32
2023/04/25 12:01:39;;;;;;;1.92;1.50;;;10.00;99.90;;;;;;4871559;28;90570;-32
2023/04/25 12:04:13;;;;;;;2.67;1.55;;;10.00;99.90;;;;;;4874923;28;90370;-30
2023/04/25 12:06:40;;;;;;;3.60;1.10;;;10.10;99.90;;;;;;4871087;28;89253;-35
2023/04/25 12:09:09;;;;;;;2.28;1.13;;;10.20;99.90;;;;;;4870750;28;90119;-34
2023/04/25 12:12:05;;;;;;;2.38;1.55;;;10.20;99.90;;;;;;4877342;28;90228;-30
2023/04/25 12:14:35;;;;;;;1.30;1.20;;;10.40;99.90;;;;;;4852003;28;92152;-30
2023/04/25 12:17:03;;;;;;;2.25;1.90;;;10.40;99.90;;;;;;4883419;28;90276;-29
2023/04/25 12:19:36;;;;;;;3.53;1.77;;;10.50;99.90;;;;;;4883267;28;89528;-30
2023/04/25 12:22:03;;;;;;;3.88;2.35;;;10.50;99.90;;;;;;4883804;28;88726;-30
2023/04/25 12:24:28;;;;;;;3.88;2.20;;;10.30;99.90;;;;;;4883500;28;89099;-29
2023/04/25 12:27:04;;;;;;;4.28;1.90;;;10.50;99.90;;;;;;4882337;28;90904;-35
2023/04/25 12:29:31;;;;;;;6.47;1.88;;;10.40;99.90;;;;;;4883178;28;89831;-31
2023/04/25 12:31:58;;;;;;;2.77;2.03;;;10.50;99.90;;;;;;4882875;28;90045;-30
2023/04/25 12:34:24;;;;;;;7.10;2.05;;;10.60;99.90;;;;;;4882960;28;90295;-32
2023/04/25 12:36:50;;;;;;;5.78;2.53;;;10.70;99.90;;;;;;4865802;28;89668;-32
2023/04/25 12:39:16;;;;;;;7.18;2.15;;;10.70;99.90;;;;;;4874902;28;89293;-32
2023/04/25 12:41:43;;;;;;;9.95;2.25;;;10.50;99.90;;;;;;4883740;28;89687;-32
2023/04/25 12:44:09;;;;;;;5.28;2.13;;;10.30;99.90;;;;;;4883432;28;90083;-34
2023/04/25 12:46:35;;;;;;;7.15;2.97;;;10.20;99.90;;;;;;4882935;28;89725;-35
2023/04/25 12:49:03;;;;;;;2.97;2.53;;;10.10;99.90;;;;;;4883799;28;89565;-33